Time;durP1;ratioP1;P1;durP2;ratioP2;P2;SDS_P1;SDS_P2;PMS_P1;PMS_P2;Temp;Humidity;BMP_temperature;BMP_pressure;BME280_temperature;BME280_humidity;BME280_pressure;Samples;Min_cycle;Max_cycle;Signal;HPM_P1;HPM_P2
2022/04/12 00:02:05;;;;;;;4.63;3.63;;;12.90;53.20;;;;;;4989897;28;21236;-84
2022/04/12 00:04:33;;;;;;;3.93;3.53;;;12.90;53.50;;;;;;4995578;28;20486;-83
2022/04/12 00:10:21;;;;;;;4.70;4.07;;;12.90;53.50;;;;;;4939034;29;20464;-82
2022/04/12 00:13:02;;;;;;;5.20;4.43;;;12.90;53.50;;;;;;4937553;29;20481;-84
2022/04/12 00:15:35;;;;;;;5.20;3.60;;;13.00;53.60;;;;;;4947724;28;20832;-82
2022/04/12 00:20:53;;;;;;;4.67;3.57;;;13.10;53.50;;;;;;4926441;29;20468;-83
2022/04/12 00:23:25;;;;;;;5.30;4.00;;;12.90;53.90;;;;;;4927446;29;20469;-83
2022/04/12 00:26:00;;;;;;;3.53;3.23;;;13.00;53.80;;;;;;4915897;29;21302;-84
2022/04/12 00:28:27;;;;;;;4.37;3.40;;;13.00;53.90;;;;;;4926812;29;21360;-84
2022/04/12 00:30:54;;;;;;;4.70;4.20;;;12.90;53.90;;;;;;4922612;29;20719;-85
2022/04/12 00:33:21;;;;;;;6.70;3.67;;;12.80;54.20;;;;;;4931022;29;20486;-84
2022/04/12 00:35:48;;;;;;;5.23;3.80;;;12.80;54.40;;;;;;4915976;29;20475;-84
2022/04/12 00:38:18;;;;;;;4.20;3.63;;;12.90;54.50;;;;;;5011957;23;20493;-84
2022/04/12 00:40:46;;;;;;;4.20;3.80;;;13.00;54.30;;;;;;5030902;28;20485;-85
2022/04/12 00:43:16;;;;;;;3.93;3.63;;;12.90;54.70;;;;;;5033678;28;20464;-84
2022/04/12 00:45:43;;;;;;;9.17;4.10;;;13.00;54.60;;;;;;5034165;28;20527;-82
2022/04/12 00:48:10;;;;;;;4.73;3.73;;;12.90;54.60;;;;;;5021780;28;20481;-83
2022/04/12 00:50:40;;;;;;;6.07;4.43;;;12.90;54.60;;;;;;5017455;28;20566;-85
2022/04/12 00:53:08;;;;;;;4.00;3.30;;;12.80;54.70;;;;;;5012687;28;20482;-82
2022/04/12 00:55:47;;;;;;;4.67;4.27;;;12.90;54.90;;;;;;5013328;28;20462;-84
2022/04/12 00:58:14;;;;;;;6.87;3.60;;;12.80;54.80;;;;;;5008935;28;20446;-85
2022/04/12 01:00:41;;;;;;;4.03;3.60;;;12.70;55.00;;;;;;5009392;28;20450;-85
2022/04/12 01:03:08;;;;;;;5.90;3.80;;;12.70;55.20;;;;;;5006873;28;20561;-83
2022/04/12 01:05:36;;;;;;;4.47;3.70;;;12.90;55.00;;;;;;5012817;28;20486;-80
2022/04/12 01:08:03;;;;;;;4.70;3.90;;;12.90;54.80;;;;;;5006507;28;20504;-81
2022/04/12 01:10:32;;;;;;;7.10;3.67;;;12.70;55.00;;;;;;5008554;28;20450;-83
2022/04/12 01:13:01;;;;;;;4.30;3.70;;;12.70;55.20;;;;;;5012018;28;20478;-82
2022/04/12 01:15:28;;;;;;;5.87;3.77;;;12.70;55.40;;;;;;5016873;28;20475;-82
2022/04/12 01:17:57;;;;;;;4.23;3.70;;;12.70;55.50;;;;;;5019130;28;20478;-81
2022/04/12 01:20:29;;;;;;;3.87;3.40;;;12.70;55.40;;;;;;5013475;28;20541;-85
2022/04/12 01:23:04;;;;;;;4.17;3.77;;;12.80;55.60;;;;;;5016778;28;20493;-84
2022/04/12 01:25:31;;;;;;;5.20;3.90;;;12.90;55.20;;;;;;5013635;28;20449;-83
2022/04/12 01:27:58;;;;;;;4.80;3.97;;;13.00;55.10;;;;;;5009720;28;20588;-83
2022/04/12 01:30:25;;;;;;;4.60;4.00;;;12.80;54.90;;;;;;5011240;28;20459;-83
2022/04/12 01:32:51;;;;;;;4.50;3.70;;;12.70;55.30;;;;;;5009460;28;20482;-83
2022/04/12 01:35:18;;;;;;;4.93;3.97;;;12.60;55.70;;;;;;5007113;28;20463;-83
2022/04/12 01:37:45;;;;;;;4.40;4.00;;;12.60;55.90;;;;;;5010655;28;21062;-84
2022/04/12 01:40:12;;;;;;;4.00;3.53;;;12.60;55.80;;;;;;5010509;28;20449;-82
2022/04/12 01:42:39;;;;;;;6.80;4.20;;;12.60;56.00;;;;;;5013984;28;20974;-83
2022/04/12 01:45:07;;;;;;;6.33;4.00;;;12.60;56.20;;;;;;5022968;28;20455;-82
2022/04/12 01:47:35;;;;;;;4.53;3.93;;;12.60;56.30;;;;;;5030204;28;20541;-83
2022/04/12 01:50:06;;;;;;;6.90;4.00;;;12.60;56.30;;;;;;5028403;28;20507;-85
2022/04/12 01:52:34;;;;;;;6.20;4.10;;;12.60;56.40;;;;;;5034869;28;20474;-82
2022/04/12 01:55:02;;;;;;;4.70;3.90;;;12.60;56.30;;;;;;5036730;28;20529;-82
2022/04/12 01:57:29;;;;;;;4.70;3.30;;;12.70;56.30;;;;;;5028793;28;20485;-84
2022/04/12 01:59:57;;;;;;;4.70;3.90;;;12.70;56.40;;;;;;5015644;28;20454;-83
2022/04/12 02:02:24;;;;;;;5.30;3.57;;;12.70;56.50;;;;;;5013079;28;20493;-81
2022/04/12 02:04:51;;;;;;;5.43;3.70;;;12.70;56.60;;;;;;5026405;28;20466;-82
2022/04/12 02:07:17;;;;;;;4.20;3.50;;;12.60;56.40;;;;;;5017871;28;20476;-83
2022/04/12 02:09:44;;;;;;;4.07;3.70;;;12.50;57.40;;;;;;5014977;28;20476;-85
2022/04/12 02:12:11;;;;;;;4.30;3.90;;;12.60;56.80;;;;;;5013618;28;20449;-83
2022/04/12 02:14:37;;;;;;;5.13;3.80;;;12.50;56.60;;;;;;5016017;28;20493;-85
2022/04/12 02:17:04;;;;;;;4.20;3.80;;;12.50;56.70;;;;;;5022015;28;20446;-84
2022/04/12 02:19:31;;;;;;;4.13;3.73;;;12.60;56.50;;;;;;5018285;28;20485;-84
2022/04/12 02:21:58;;;;;;;5.80;3.80;;;12.60;56.50;;;;;;5015314;28;20546;-83
2022/04/12 02:24:24;;;;;;;5.20;4.30;;;12.50;56.80;;;;;;5012968;28;20458;-84
2022/04/12 02:26:51;;;;;;;4.20;3.50;;;12.70;57.00;;;;;;5009871;28;20463;-84
2022/04/12 02:29:18;;;;;;;3.43;3.10;;;12.70;56.80;;;;;;5017522;28;20485;-83
2022/04/12 02:31:44;;;;;;;4.37;3.77;;;12.50;57.30;;;;;;5016457;28;20457;-83
2022/04/12 02:34:11;;;;;;;4.93;3.90;;;12.60;57.30;;;;;;5016253;28;20494;-84
2022/04/12 02:36:38;;;;;;;6.70;4.60;;;12.60;57.20;;;;;;5019442;28;20461;-83
2022/04/12 02:39:05;;;;;;;5.20;4.40;;;12.50;57.30;;;;;;5011699;28;20491;-83
2022/04/12 02:41:32;;;;;;;4.50;3.10;;;12.60;57.50;;;;;;5011130;28;20457;-84
2022/04/12 02:43:58;;;;;;;3.53;3.23;;;12.40;57.60;;;;;;5017921;28;20465;-82
2022/04/12 02:46:25;;;;;;;3.93;3.53;;;12.30;57.70;;;;;;5017582;28;20473;-84
2022/04/12 02:48:52;;;;;;;4.57;4.00;;;12.10;58.00;;;;;;5008523;28;20545;-84
2022/04/12 02:51:19;;;;;;;4.30;3.63;;;12.20;58.40;;;;;;5019246;28;20445;-84
2022/04/12 02:53:49;;;;;;;5.40;3.57;;;12.30;58.10;;;;;;5008785;28;20490;-83
2022/04/12 02:56:15;;;;;;;4.30;3.70;;;12.50;57.70;;;;;;5014762;28;20533;-83
2022/04/12 02:58:42;;;;;;;4.47;4.07;;;12.60;57.30;;;;;;5013252;28;20474;-83
2022/04/12 03:01:09;;;;;;;4.57;4.13;;;12.50;57.40;;;;;;5016754;28;20459;-84
2022/04/12 03:03:36;;;;;;;4.20;3.30;;;12.60;57.50;;;;;;5015856;28;20521;-84
2022/04/12 03:06:03;;;;;;;4.43;4.03;;;12.40;57.30;;;;;;5012248;28;20473;-83
2022/04/12 03:08:29;;;;;;;5.80;3.80;;;12.20;57.70;;;;;;5012720;28;20475;-83
2022/04/12 03:10:56;;;;;;;5.10;4.10;;;12.40;58.00;;;;;;5009439;28;20467;-84
2022/04/12 03:13:24;;;;;;;5.80;4.40;;;12.40;57.60;;;;;;5004291;28;21023;-83
2022/04/12 03:15:51;;;;;;;4.80;4.10;;;12.30;58.00;;;;;;5016145;28;20550;-83
2022/04/12 03:18:18;;;;;;;4.30;3.90;;;12.70;58.00;;;;;;5018574;28;20570;-84
2022/04/12 03:20:45;;;;;;;5.07;3.50;;;12.80;57.50;;;;;;5017801;28;20482;-83
2022/04/12 03:23:12;;;;;;;5.90;4.90;;;12.70;57.30;;;;;;5022053;28;20469;-83
2022/04/12 03:25:39;;;;;;;4.70;3.67;;;12.60;57.50;;;;;;5020398;28;20827;-83
2022/04/12 03:28:06;;;;;;;4.77;4.03;;;12.70;57.70;;;;;;5020907;28;20474;-82
2022/04/12 03:30:33;;;;;;;4.03;3.53;;;12.70;57.50;;;;;;5006029;28;20465;-83
2022/04/12 03:33:00;;;;;;;4.20;3.80;;;12.50;57.50;;;;;;5011284;28;20454;-83
2022/04/12 03:35:27;;;;;;;5.50;3.87;;;12.60;57.80;;;;;;5016739;28;21152;-82
2022/04/12 03:38:00;;;;;;;4.33;3.83;;;12.70;57.70;;;;;;5011828;28;20477;-83
2022/04/12 03:40:31;;;;;;;4.10;3.20;;;12.70;57.60;;;;;;5016953;28;20443;-83
2022/04/12 03:43:02;;;;;;;5.27;3.77;;;12.70;57.60;;;;;;5021851;28;20533;-82
2022/04/12 03:45:29;;;;;;;7.30;3.80;;;12.70;57.80;;;;;;5020835;28;20447;-83
2022/04/12 03:47:56;;;;;;;5.40;4.20;;;12.50;58.20;;;;;;5044850;22;20505;-83
2022/04/12 03:50:25;;;;;;;6.40;3.93;;;12.50;58.70;;;;;;5015053;28;20455;-84
2022/04/12 03:52:52;;;;;;;5.50;3.10;;;12.50;58.60;;;;;;5031082;28;20430;-82
2022/04/12 03:55:35;;;;;;;4.03;3.73;;;12.50;58.50;;;;;;5028819;28;20493;-82
2022/04/12 03:58:06;;;;;;;4.80;3.50;;;12.60;58.30;;;;;;5025643;28;20501;-81
2022/04/12 04:00:33;;;;;;;4.97;3.43;;;12.50;58.40;;;;;;5024615;28;20987;-84
2022/04/12 04:03:00;;;;;;;3.90;3.17;;;12.40;58.70;;;;;;5017902;28;20454;-83
2022/04/12 04:05:27;;;;;;;3.80;3.37;;;12.30;58.70;;;;;;5008814;28;20459;-84
2022/04/12 04:07:54;;;;;;;3.77;3.47;;;12.10;59.20;;;;;;5017778;28;20556;-84
2022/04/12 04:10:21;;;;;;;5.63;3.77;;;12.10;59.60;;;;;;5016335;28;20826;-83
2022/04/12 04:12:47;;;;;;;5.00;3.80;;;12.20;59.80;;;;;;5015232;28;20459;-83
2022/04/12 04:15:14;;;;;;;5.17;4.17;;;12.30;59.50;;;;;;5025691;28;20514;-81
2022/04/12 04:17:46;;;;;;;8.00;3.63;;;12.40;59.60;;;;;;5017622;28;20504;-83
2022/04/12 04:20:18;;;;;;;8.50;4.20;;;12.60;59.40;;;;;;5011237;28;20474;-83
2022/04/12 04:22:45;;;;;;;5.40;4.13;;;12.60;58.90;;;;;;5015082;28;20443;-83
2022/04/12 04:25:14;;;;;;;9.53;4.80;;;12.50;59.20;;;;;;5015270;28;20454;-81
2022/04/12 04:27:41;;;;;;;6.87;4.60;;;12.30;59.60;;;;;;5015614;28;21002;-82
2022/04/12 04:30:09;;;;;;;6.33;3.97;;;12.10;60.10;;;;;;5018038;28;20517;-82
2022/04/12 04:32:36;;;;;;;9.23;4.20;;;12.20;60.00;;;;;;5035083;28;20477;-83
2022/04/12 04:35:04;;;;;;;6.80;3.90;;;12.30;59.70;;;;;;5016786;28;20482;-84
2022/04/12 04:37:31;;;;;;;6.60;4.07;;;12.10;60.30;;;;;;5010046;28;20509;-84
2022/04/12 04:39:58;;;;;;;6.03;3.50;;;11.90;60.70;;;;;;5016966;28;20953;-83
2022/04/12 04:42:27;;;;;;;5.07;3.23;;;12.00;61.20;;;;;;5016965;28;20456;-83
2022/04/12 04:44:53;;;;;;;3.40;2.90;;;12.30;60.60;;;;;;5024185;28;20537;-80
2022/04/12 04:47:30;;;;;;;5.30;3.50;;;12.40;59.80;;;;;;5028392;28;20450;-81
2022/04/12 04:49:57;;;;;;;8.97;4.10;;;12.20;60.20;;;;;;5032648;28;20485;-82
2022/04/12 04:52:23;;;;;;;5.20;3.60;;;12.00;61.80;;;;;;5018390;28;20538;-83
2022/04/12 04:54:50;;;;;;;5.50;3.83;;;12.30;61.10;;;;;;5019991;28;20481;-83
2022/04/12 04:57:17;;;;;;;5.90;3.80;;;12.40;60.00;;;;;;5031906;28;20438;-81
2022/04/12 05:03:07;;;;;;;4.13;3.73;;;12.40;59.90;;;;;;5025030;28;20433;-85
2022/04/12 05:05:34;;;;;;;12.80;3.40;;;12.50;60.00;;;;;;5022831;28;20501;-82
2022/04/12 05:08:04;;;;;;;5.80;5.03;;;12.30;60.50;;;;;;5013653;28;20501;-82
2022/04/12 05:10:58;;;;;;;5.47;3.80;;;12.30;61.20;;;;;;5001442;28;20469;-83
2022/04/12 05:13:37;;;;;;;6.53;3.57;;;12.30;61.00;;;;;;4993800;28;20911;-83
2022/04/12 05:16:13;;;;;;;5.10;3.53;;;12.50;60.60;;;;;;4996455;28;20881;-84
2022/04/12 05:18:51;;;;;;;8.03;3.50;;;12.30;60.60;;;;;;4994308;28;20459;-82
2022/04/12 05:21:24;;;;;;;10.10;3.90;;;12.40;61.00;;;;;;5014909;28;20531;-82
2022/04/12 05:23:55;;;;;;;8.30;4.87;;;12.20;61.40;;;;;;5017321;28;20446;-82
2022/04/12 05:26:37;;;;;;;10.50;5.40;;;12.20;61.70;;;;;;5016685;28;20435;-82
2022/04/12 05:29:21;;;;;;;4.93;4.17;;;12.30;61.30;;;;;;5025347;28;20468;-82
2022/04/12 05:32:00;;;;;;;4.30;3.40;;;12.40;61.70;;;;;;5022720;28;20481;-81
2022/04/12 05:34:51;;;;;;;6.30;4.20;;;12.40;62.30;;;;;;5027361;28;20486;-82
2022/04/12 05:37:59;;;;;;;10.50;3.90;;;12.40;61.00;;;;;;5010502;28;20446;-82
2022/04/12 05:40:42;;;;;;;4.70;4.20;;;12.30;60.80;;;;;;5016436;28;20453;-83
2022/04/12 05:49:31;;;;;;;5.93;4.23;;;12.70;59.60;;;;;;4972590;28;20525;-82
2022/04/12 05:52:27;;;;;;;5.60;3.80;;;12.70;59.40;;;;;;5016488;28;20469;-83
2022/04/12 05:54:54;;;;;;;4.23;3.43;;;12.70;59.50;;;;;;5001752;28;20491;-84
2022/04/12 05:57:33;;;;;;;4.30;3.67;;;12.80;59.40;;;;;;5010739;28;20474;-83
2022/04/12 06:00:14;;;;;;;7.77;3.83;;;12.90;58.80;;;;;;4999326;28;20462;-84
2022/04/12 06:03:23;;;;;;;7.43;4.00;;;12.90;58.70;;;;;;4991827;28;20449;-83
2022/04/12 06:06:20;;;;;;;;;;;;;;;;;;;;;
2022/04/12 06:09:12;;;;;;;5.40;4.30;;;16.30;55.00;;;;;;5002843;28;20972;-84
2022/04/12 06:12:07;;;;;;;4.47;4.03;;;17.10;51.80;;;;;;5011930;28;20450;-85
2022/04/12 06:15:10;;;;;;;5.43;3.73;;;17.80;49.80;;;;;;5002508;28;20577;-85
2022/04/12 06:18:02;;;;;;;7.20;3.87;;;18.30;48.70;;;;;;4998010;28;20502;-85
2022/04/12 06:20:48;;;;;;;4.03;3.63;;;19.00;47.50;;;;;;4991918;28;20546;-83
2022/04/12 06:26:49;;;;;;;4.90;4.40;;;18.70;46.90;;;;;;5003240;28;20476;-83
2022/04/12 06:29:21;;;;;;;5.87;4.70;;;17.00;48.30;;;;;;5011233;28;20467;-84
2022/04/12 06:31:48;;;;;;;6.73;4.60;;;16.90;49.50;;;;;;5009707;28;20482;-83
2022/04/12 06:34:15;;;;;;;5.30;3.90;;;16.30;49.60;;;;;;5004143;28;20552;-81
2022/04/12 06:36:45;;;;;;;4.60;4.20;;;15.70;50.50;;;;;;5010545;28;20537;-82
2022/04/12 06:39:12;;;;;;;4.77;3.97;;;15.00;51.90;;;;;;5006397;28;20483;-80
2022/04/12 06:41:39;;;;;;;4.30;3.47;;;14.40;53.40;;;;;;4998784;28;20546;-83
2022/04/12 06:44:07;;;;;;;4.17;3.80;;;14.40;54.30;;;;;;5008090;28;20457;-81
2022/04/12 06:46:33;;;;;;;5.33;4.03;;;14.60;54.10;;;;;;5014823;28;20485;-82
2022/04/12 06:49:00;;;;;;;5.00;3.93;;;15.20;53.70;;;;;;5008334;28;20545;-82
2022/04/12 06:51:27;;;;;;;6.57;4.20;;;15.30;53.00;;;;;;5017451;28;20508;-82
2022/04/12 06:53:54;;;;;;;4.70;4.20;;;15.70;53.30;;;;;;4996569;28;20455;-80
2022/04/12 06:56:23;;;;;;;4.93;3.70;;;16.30;52.00;;;;;;5013308;28;20779;-82
2022/04/12 06:58:50;;;;;;;4.53;3.63;;;16.60;51.00;;;;;;5020949;23;20548;-81
2022/04/12 07:01:23;;;;;;;5.80;4.00;;;16.60;50.70;;;;;;5019512;28;20938;-84
2022/04/12 07:03:54;;;;;;;4.80;3.53;;;16.60;50.90;;;;;;5031065;28;20453;-82
2022/04/12 07:06:31;;;;;;;3.90;3.33;;;17.00;50.90;;;;;;5029905;28;20431;-87
2022/04/12 07:09:05;;;;;;;4.20;3.23;;;17.50;49.40;;;;;;5031803;28;20470;-86
2022/04/12 07:11:44;;;;;;;4.10;3.53;;;17.30;49.40;;;;;;5013998;28;20459;-86
2022/04/12 07:14:14;;;;;;;3.93;3.20;;;16.80;50.00;;;;;;5037009;28;20497;-85
2022/04/12 07:16:46;;;;;;;5.13;3.77;;;16.60;50.50;;;;;;5007026;28;20494;-86
2022/04/12 07:19:26;;;;;;;4.10;3.60;;;17.00;50.50;;;;;;5034051;28;20534;-85
2022/04/12 07:22:13;;;;;;;5.20;4.00;;;17.20;50.20;;;;;;5288110;22;20549;-83
2022/04/12 07:24:54;;;;;;;4.33;3.90;;;17.80;48.80;;;;;;5027331;28;20562;-85
2022/04/12 07:27:55;;;;;;;6.90;4.23;;;18.00;48.90;;;;;;5018590;28;20478;-84
2022/04/12 07:30:27;;;;;;;5.20;3.67;;;18.10;48.20;;;;;;4999827;28;20444;-83
2022/04/12 07:33:41;;;;;;;7.07;4.20;;;17.70;49.00;;;;;;5005688;28;20525;-81
2022/04/12 07:43:00;;;;;;;3.47;3.17;;;19.60;47.50;;;;;;5038781;28;20494;-81
2022/04/12 07:45:43;;;;;;;7.23;4.10;;;20.50;45.60;;;;;;5087555;28;20434;-84
2022/04/12 07:48:35;;;;;;;5.30;3.70;;;22.70;43.40;;;;;;5085233;28;20484;-85
2022/04/12 07:51:06;;;;;;;4.30;3.10;;;22.60;42.30;;;;;;5066603;28;20417;-86
2022/04/12 07:56:50;;;;;;;4.57;4.17;;;25.70;38.10;;;;;;5141065;23;20502;-84
2022/04/12 07:59:41;;;;;;;5.07;4.57;;;26.10;37.70;;;;;;5007563;28;20494;-83
2022/04/12 08:02:14;;;;;;;5.67;3.93;;;27.30;36.00;;;;;;5003771;28;20474;-83
2022/04/12 08:05:05;;;;;;;5.27;4.73;;;25.50;36.60;;;;;;4999044;28;20459;-82
2022/04/12 08:07:44;;;;;;;5.87;4.33;;;25.00;36.70;;;;;;5002123;28;20530;-85
2022/04/12 08:10:53;;;;;;;5.00;3.87;;;25.10;37.40;;;;;;5007221;28;20449;-83
2022/04/12 08:13:46;;;;;;;7.40;4.83;;;24.60;36.60;;;;;;4999386;28;20542;-82
2022/04/12 08:16:44;;;;;;;6.37;3.93;;;22.40;38.60;;;;;;5006499;28;20530;-86
2022/04/12 08:19:52;;;;;;;6.83;4.23;;;22.50;40.00;;;;;;4990679;28;20460;-85
2022/04/12 08:22:44;;;;;;;5.67;3.97;;;21.90;40.80;;;;;;4998718;28;20451;-85
2022/04/12 08:25:27;;;;;;;4.23;3.83;;;22.40;40.00;;;;;;5008093;28;20454;-86
2022/04/12 08:28:34;;;;;;;4.83;3.90;;;23.60;39.40;;;;;;5005090;28;20483;-85
2022/04/12 08:31:51;;;;;;;5.10;4.60;;;23.20;38.50;;;;;;4996363;28;20455;-85
2022/04/12 08:35:20;;;;;;;6.10;3.90;;;24.60;38.70;;;;;;4987913;28;21021;-84
2022/04/12 08:38:49;;;;;;;5.53;3.70;;;25.30;36.50;;;;;;4997838;28;20467;-83
2022/04/12 08:41:57;;;;;;;5.37;4.10;;;25.70;37.00;;;;;;4921122;29;20461;-88
2022/04/12 08:48:01;;;;;;;4.90;3.93;;;25.10;36.90;;;;;;4927721;29;20478;-82
2022/04/12 08:50:37;;;;;;;5.80;4.20;;;24.80;36.90;;;;;;4917014;29;20537;-85
2022/04/12 08:53:56;;;;;;;;;;;;;;;;;;;;;
2022/04/12 09:00:30;;;;;;;6.27;3.90;;;25.20;37.30;;;;;;4995516;28;20478;-86
2022/04/12 09:03:32;;;;;;;4.30;3.73;;;24.40;37.50;;;;;;4987606;28;20444;-87
2022/04/12 09:06:31;;;;;;;4.20;3.53;;;23.70;38.80;;;;;;4996410;28;20498;-86
2022/04/12 09:13:23;;;;;;;7.07;3.90;;;22.70;39.80;;;;;;4922564;28;20459;-87
2022/04/12 09:33:53;;;;;;;5.43;3.43;;;23.50;38.00;;;;;;5039883;28;20587;-80
2022/04/12 09:46:27;;;;;;;3.90;3.50;;;24.30;36.30;;;;;;4873804;29;20534;-79
2022/04/12 09:48:59;;;;;;;3.20;2.90;;;24.60;36.60;;;;;;4898223;29;20500;-80
2022/04/12 09:51:51;;;;;;;3.73;3.10;;;25.20;36.00;;;;;;4896335;29;20472;-79
2022/04/12 09:54:53;;;;;;;5.63;3.47;;;25.10;35.60;;;;;;4875580;29;20542;-79
2022/04/12 09:57:47;;;;;;;2.87;2.67;;;24.20;36.50;;;;;;4878227;29;20464;-80
2022/04/12 10:00:31;;;;;;;5.37;3.70;;;24.30;37.40;;;;;;4891471;29;21026;-79
2022/04/12 10:07:11;;;;;;;5.10;2.70;;;25.10;35.80;;;;;;4887227;29;20468;-80
2022/04/12 10:09:52;;;;;;;3.43;2.90;;;25.40;36.00;;;;;;4836258;29;20494;-80
2022/04/12 10:12:55;;;;;;;4.70;2.83;;;25.40;35.70;;;;;;4853684;29;20457;-80
2022/04/12 10:15:24;;;;;;;2.63;2.43;;;24.70;36.20;;;;;;4896044;29;20472;-80
2022/04/12 10:18:07;;;;;;;3.03;2.73;;;24.50;37.20;;;;;;4879370;29;20554;-80
2022/04/12 10:20:49;;;;;;;3.63;2.20;;;24.50;37.40;;;;;;4879605;29;20790;-80
2022/04/12 10:23:43;;;;;;;;;;;;;;;;;;;;;
2022/04/12 10:26:54;;;;;;;5.27;2.73;;;24.60;38.20;;;;;;4984430;28;20966;-81
2022/04/12 10:29:57;;;;;;;2.63;2.40;;;24.80;38.40;;;;;;4988317;28;20472;-80
2022/04/12 10:33:18;;;;;;;2.90;2.60;;;25.00;38.40;;;;;;4980072;28;20490;-83
2022/04/12 10:36:23;;;;;;;3.37;2.30;;;24.60;38.90;;;;;;4995775;28;20581;-81
2022/04/12 10:44:20;;;;;;;4.20;1.97;;;24.60;37.80;;;;;;4984694;28;20507;-81
2022/04/12 10:46:52;;;;;;;1.93;1.60;;;24.10;39.40;;;;;;5002020;28;20489;-83
2022/04/12 10:50:07;;;;;;;2.70;1.30;;;25.10;38.30;;;;;;4996916;28;20458;-82
2022/04/12 10:52:53;;;;;;;2.03;1.70;;;24.90;38.20;;;;;;4961216;28;20442;-83
2022/04/12 10:59:45;;;;;;;3.63;1.70;;;25.40;37.80;;;;;;4989062;28;20536;-83
2022/04/12 11:02:16;;;;;;;3.20;1.67;;;25.40;37.00;;;;;;4977162;28;20463;-84
2022/04/12 11:04:44;;;;;;;2.30;1.50;;;25.50;36.10;;;;;;4986514;28;21822;-82
2022/04/12 11:07:27;;;;;;;2.87;1.57;;;25.50;35.10;;;;;;4977560;28;20468;-84
2022/04/12 11:10:12;;;;;;;3.63;1.50;;;25.30;34.90;;;;;;4992654;28;20728;-84
2022/04/12 11:12:42;;;;;;;2.13;1.93;;;25.30;35.20;;;;;;4980409;28;20572;-84
2022/04/12 11:15:27;;;;;;;2.40;1.70;;;25.50;35.40;;;;;;4976554;28;20488;-83
2022/04/12 11:18:07;;;;;;;3.10;2.13;;;25.40;35.70;;;;;;4999164;28;20522;-85
2022/04/12 11:20:35;;;;;;;3.60;2.40;;;25.40;35.90;;;;;;4978475;28;20487;-82
2022/04/12 11:23:11;;;;;;;2.40;1.80;;;25.20;35.80;;;;;;4994418;28;20479;-85
2022/04/12 11:25:50;;;;;;;2.40;1.80;;;25.10;36.20;;;;;;4977178;28;20459;-84
2022/04/12 11:28:24;;;;;;;2.60;1.73;;;25.80;36.00;;;;;;4994840;28;20460;-82
2022/04/12 11:30:58;;;;;;;3.87;2.20;;;26.20;35.00;;;;;;4979131;28;20454;-83
2022/04/12 11:33:29;;;;;;;5.70;2.20;;;25.70;35.60;;;;;;4981223;28;20757;-84
2022/04/12 11:35:58;;;;;;;3.00;2.43;;;25.40;36.10;;;;;;5000920;28;20483;-84
2022/04/12 11:38:29;;;;;;;5.67;2.10;;;25.20;36.30;;;;;;5007722;28;20518;-84
2022/04/12 11:41:01;;;;;;;4.90;2.60;;;25.30;36.90;;;;;;4983563;28;20487;-84
2022/04/12 11:51:08;;;;;;;;;;;;;;;;;;;;;
2022/04/12 11:53:53;;;;;;;3.30;2.00;;;25.00;37.20;;;;;;4899492;29;20445;-84
2022/04/12 11:56:44;;;;;;;2.90;1.73;;;25.10;37.40;;;;;;4920942;29;20944;-83
2022/04/12 11:59:19;;;;;;;1.63;1.33;;;25.40;36.90;;;;;;4928080;29;20493;-83
2022/04/12 12:01:50;;;;;;;1.73;1.60;;;25.60;36.20;;;;;;4930937;29;20463;-83
2022/04/12 12:04:46;;;;;;;4.80;2.00;;;25.40;36.90;;;;;;4914889;29;20469;-84
2022/04/12 12:07:40;;;;;;;3.37;1.77;;;25.30;36.80;;;;;;4932705;29;20465;-84
2022/04/12 12:10:16;;;;;;;2.37;1.50;;;25.70;36.80;;;;;;4940603;29;20453;-83
2022/04/12 12:13:10;;;;;;;2.87;1.80;;;25.70;37.00;;;;;;4947515;28;20497;-82
2022/04/12 12:16:15;;;;;;;1.63;1.53;;;26.50;36.40;;;;;;4931634;29;20526;-84
2022/04/12 12:18:57;;;;;;;2.33;1.40;;;26.80;35.50;;;;;;4876312;29;20611;-83
2022/04/12 12:22:17;;;;;;;3.20;1.43;;;26.60;34.90;;;;;;4967395;28;20459;-83
2022/04/12 12:25:18;;;;;;;2.77;1.20;;;26.30;35.20;;;;;;5002296;28;20487;-82
2022/04/12 12:28:21;;;;;;;1.70;1.30;;;25.40;36.50;;;;;;4983349;28;20547;-84
2022/04/12 12:31:59;;;;;;;;;;;;;;;;;;;;;
2022/04/12 12:34:07;;;;;;;2.23;1.43;;;25.60;36.20;;;;;;4989163;28;20899;-84
2022/04/12 12:36:34;;;;;;;1.80;1.27;;;25.00;36.70;;;;;;4991316;28;20491;-84
2022/04/12 12:42:12;;;;;;;;;;;;;;;;;;;;;
2022/04/12 12:45:17;;;;;;;2.13;1.50;;;24.80;37.50;;;;;;4993105;28;20475;-83
2022/04/12 12:48:47;;;;;;;2.40;1.83;;;24.50;38.00;;;;;;4979036;28;20479;-83
2022/04/12 12:51:22;;;;;;;6.00;1.93;;;24.60;38.90;;;;;;4978837;28;20451;-85
2022/04/12 12:57:16;;;;;;;1.77;1.20;;;24.50;39.40;;;;;;4984885;28;20551;-82
2022/04/12 12:59:50;;;;;;;2.30;1.40;;;24.40;38.60;;;;;;4990905;28;20443;-85
2022/04/12 13:02:41;;;;;;;3.00;1.30;;;24.20;38.90;;;;;;4997852;28;20515;-83
2022/04/12 13:05:40;;;;;;;4.10;1.30;;;24.20;39.10;;;;;;4994370;28;20452;-80
2022/04/12 13:08:45;;;;;;;1.70;1.57;;;24.10;39.00;;;;;;4978672;28;21008;-84
2022/04/12 13:11:36;;;;;;;5.70;1.40;;;23.80;39.50;;;;;;4975743;28;20935;-81
2022/04/12 13:14:20;;;;;;;1.63;1.50;;;23.90;39.30;;;;;;4976289;28;20496;-83
2022/04/12 13:16:57;;;;;;;1.37;1.27;;;24.30;39.30;;;;;;4976485;28;20480;-84
2022/04/12 13:19:51;;;;;;;2.83;1.57;;;24.20;39.50;;;;;;4961756;28;20536;-82
2022/04/12 13:22:30;;;;;;;1.20;1.10;;;24.70;39.20;;;;;;4982306;28;20487;-82
2022/04/12 13:25:06;;;;;;;2.77;1.87;;;25.10;38.70;;;;;;4990164;28;20467;-80
2022/04/12 13:27:45;;;;;;;1.23;1.13;;;25.10;38.40;;;;;;4978420;28;20456;-80
2022/04/12 13:30:31;;;;;;;1.57;1.43;;;25.50;37.70;;;;;;4971670;28;20544;-80
2022/04/12 13:33:01;;;;;;;2.50;1.40;;;25.80;37.50;;;;;;4968754;28;20461;-81
2022/04/12 13:35:28;;;;;;;2.37;1.37;;;25.60;37.50;;;;;;4974007;28;20972;-82
2022/04/12 13:37:57;;;;;;;1.50;1.30;;;25.40;37.40;;;;;;4972085;28;20594;-81
2022/04/12 13:40:26;;;;;;;2.50;1.30;;;25.30;37.70;;;;;;4970918;28;20460;-82
2022/04/12 13:42:53;;;;;;;3.07;1.80;;;25.80;37.20;;;;;;4964975;28;20464;-80
2022/04/12 13:45:21;;;;;;;4.33;1.80;;;25.90;37.60;;;;;;4971302;28;20491;-80
2022/04/12 13:47:49;;;;;;;1.93;1.40;;;26.00;37.40;;;;;;4969272;28;20485;-80
2022/04/12 13:50:16;;;;;;;1.43;1.30;;;26.20;37.10;;;;;;4970957;28;21230;-82
2022/04/12 13:52:43;;;;;;;1.97;1.60;;;26.10;36.90;;;;;;4969250;28;20456;-78
2022/04/12 13:55:11;;;;;;;1.90;1.40;;;25.80;37.20;;;;;;4967317;28;20496;-80
2022/04/12 14:00:25;;;;;;;2.27;1.53;;;25.90;37.00;;;;;;4986530;23;20507;-79
2022/04/12 14:03:12;;;;;;;3.10;1.77;;;25.80;37.20;;;;;;4980011;28;20452;-80
2022/04/12 14:05:51;;;;;;;1.20;1.10;;;25.70;37.40;;;;;;4980031;28;20464;-80
2022/04/12 14:08:44;;;;;;;1.43;1.27;;;25.90;37.30;;;;;;4977546;23;20522;-81
2022/04/12 14:11:23;;;;;;;4.80;1.70;;;25.50;37.90;;;;;;4987229;28;20471;-80
2022/04/12 14:14:30;;;;;;;2.67;2.10;;;25.70;38.10;;;;;;4987705;28;20475;-81
2022/04/12 14:17:40;;;;;;;3.93;2.00;;;25.70;38.00;;;;;;4920161;29;20499;-81
2022/04/12 14:24:30;;;;;;;2.77;1.57;;;25.90;37.50;;;;;;4920264;29;20470;-81
2022/04/12 14:30:59;;;;;;;5.90;1.40;;;25.40;38.20;;;;;;5023339;23;20948;-82
2022/04/12 14:34:18;;;;;;;2.90;1.40;;;25.20;38.70;;;;;;4953906;28;20429;-82
2022/04/12 14:48:41;;;;;;;2.10;1.40;;;25.30;39.20;;;;;;4814774;29;20494;-80
2022/04/12 14:52:09;;;;;;;;;;;;;;;;;;;;;
2022/04/12 14:55:36;;;;;;;3.50;1.67;;;25.30;38.90;;;;;;4862383;29;20975;-80
2022/04/12 15:06:50;;;;;;;2.00;1.80;;;25.10;39.30;;;;;;2298919;26;20479;-81
2022/04/12 15:09:53;;;;;;;;;;;;;;;;;;;;;
2022/04/12 15:12:56;;;;;;;2.43;1.70;;;25.00;39.60;;;;;;4984238;28;20520;-82
2022/04/12 15:20:47;;;;;;;2.00;1.80;;;25.10;39.40;;;;;;4945443;28;20448;-87
2022/04/12 15:31:46;;;;;;;1.93;1.73;;;24.80;40.10;;;;;;4853138;29;20441;-81
2022/04/12 15:34:54;;;;;;;3.07;1.60;;;24.60;40.90;;;;;;4847133;29;20538;-82
2022/04/12 15:38:13;;;;;;;5.33;1.87;;;24.90;40.60;;;;;;4895372;28;20555;-81
2022/04/12 15:41:00;;;;;;;2.30;1.40;;;25.00;40.80;;;;;;4933425;28;20466;-80
2022/04/12 15:54:32;;;;;;;2.13;1.93;;;24.90;40.70;;;;;;4991791;28;21372;-81
2022/04/12 15:57:06;;;;;;;4.27;1.77;;;24.80;41.30;;;;;;4996617;28;20464;-82
2022/04/12 16:00:06;;;;;;;2.87;1.67;;;24.90;41.30;;;;;;4997674;28;20563;-81
2022/04/12 16:10:08;;;;;;;3.80;2.20;;;24.80;41.80;;;;;;4850521;29;21199;-82
2022/04/12 16:13:26;;;;;;;5.20;1.70;;;24.80;41.90;;;;;;4875911;29;21197;-81
2022/04/12 16:16:13;;;;;;;3.97;2.07;;;24.60;42.20;;;;;;4868974;29;22186;-82
2022/04/12 16:26:20;;;;;;;2.00;1.80;;;24.40;42.30;;;;;;4826738;29;20513;-81
2022/04/12 16:40:33;;;;;;;2.47;1.90;;;24.20;43.20;;;;;;4814157;29;21118;-81
2022/04/12 16:50:47;;;;;;;2.07;1.87;;;24.10;43.60;;;;;;4791407;29;20855;-81
2022/04/12 17:05:56;;;;;;;3.00;2.03;;;23.70;44.00;;;;;;4694757;30;20480;-83
2022/04/12 17:09:26;;;;;;;4.50;2.10;;;23.80;43.70;;;;;;4703933;30;20461;-83
2022/04/12 17:12:25;;;;;;;;;;;;;;;;;;;;;
2022/04/12 17:16:04;;;;;;;2.17;1.97;;;23.70;44.00;;;;;;4707232;30;20543;-84
2022/04/12 17:19:19;;;;;;;2.10;1.90;;;23.70;44.00;;;;;;4841297;23;20502;-80